createdAt,value
2023-03-12T00:01:24.922Z,97995.94
2023-03-12T00:03:54.241Z,98009.52
2023-03-12T00:06:22.419Z,98005.13
2023-03-12T00:08:56.382Z,97995.70
2023-03-12T00:11:25.425Z,98000.19
2023-03-12T00:13:55.135Z,98001.13
2023-03-12T00:16:23.655Z,98006.02
2023-03-12T00:18:52.774Z,98008.39
2023-03-12T00:21:22.389Z,98018.81
2023-03-12T00:23:54.290Z,98027.43
2023-03-12T00:26:23.099Z,98018.30
2023-03-12T00:28:52.478Z,98020.05
2023-03-12T00:31:28.258Z,98029.79
2023-03-12T00:34:00.616Z,98036.23
2023-03-12T00:36:31.244Z,98034.88
2023-03-12T00:39:02.895Z,98033.54
2023-03-12T00:41:33.005Z,98026.54
2023-03-12T00:44:01.170Z,98036.23
2023-03-12T00:46:29.808Z,98030.58
2023-03-12T00:48:57.997Z,98020.64
2023-03-12T00:51:26.223Z,98039.11
2023-03-12T00:53:56.129Z,98016.33
2023-03-12T00:56:25.532Z,98017.38
2023-03-12T00:58:53.715Z,98026.23
2023-03-12T01:01:21.981Z,98017.60
2023-03-12T01:03:54.797Z,98015.27
2023-03-12T01:06:24.480Z,98013.00
2023-03-12T01:08:53.063Z,98011.67
2023-03-12T01:11:21.750Z,98020.42
2023-03-12T01:13:49.931Z,98014.25
2023-03-12T01:16:18.383Z,98016.63
2023-03-12T01:18:46.745Z,98022.77
2023-03-12T01:21:14.959Z,98032.13
2023-03-12T01:23:43.040Z,98038.70
2023-03-12T01:26:11.454Z,98042.15
2023-03-12T01:28:39.689Z,98047.00
2023-03-12T01:31:09.257Z,98060.27
2023-03-12T01:33:38.055Z,98061.23
2023-03-12T01:36:13.155Z,98065.05
2023-03-12T01:38:41.398Z,98072.71
2023-03-12T01:41:09.674Z,98075.31
2023-03-12T01:43:39.093Z,98069.41
2023-03-12T01:46:27.113Z,98070.78
2023-03-12T01:49:09.033Z,98083.17
2023-03-12T01:51:59.048Z,98091.70
2023-03-12T01:54:32.600Z,98095.86
2023-03-12T01:57:02.721Z,98094.86
2023-03-12T01:59:39.390Z,98104.71
2023-03-12T02:02:07.666Z,98114.75
2023-03-12T02:04:36.457Z,98124.06
2023-03-12T02:07:09.764Z,98126.89
2023-03-12T02:09:46.455Z,98141.67
2023-03-12T02:12:16.552Z,98146.05
2023-03-12T02:14:44.584Z,98154.15
2023-03-12T02:17:12.895Z,98154.67
2023-03-12T02:20:08.833Z,98164.73
2023-03-12T02:22:37.772Z,98166.35
2023-03-12T02:25:41.011Z,98174.81
2023-03-12T02:28:12.359Z,98175.83
2023-03-12T02:30:43.026Z,98185.98
2023-03-12T02:33:23.852Z,98200.81
2023-03-12T02:35:52.579Z,98188.52
2023-03-12T02:38:30.244Z,98195.13
2023-03-12T02:40:59.549Z,98201.02
2023-03-12T02:43:28.442Z,98207.19
2023-03-12T02:45:57.253Z,98214.88
2023-03-12T02:48:25.813Z,98215.92
2023-03-12T02:50:54.488Z,98223.05
2023-03-12T02:53:23.387Z,98219.32
2023-03-12T02:55:52.289Z,98224.03
2023-03-12T02:58:20.876Z,98227.06
2023-03-12T03:00:49.348Z,98235.05
2023-03-12T03:03:18.045Z,98229.95
2023-03-12T03:05:46.412Z,98225.30
2023-03-12T03:08:18.184Z,98225.85
2023-03-12T03:10:51.874Z,98228.45
2023-03-12T03:13:20.771Z,98235.45
2023-03-12T03:15:50.325Z,98249.03
2023-03-12T03:18:21.623Z,98251.36
2023-03-12T03:21:06.793Z,98259.05
2023-03-12T03:23:38.357Z,98268.65
2023-03-12T03:26:06.830Z,98281.02
2023-03-12T03:28:35.111Z,98282.27
2023-03-12T03:31:03.703Z,98278.49
2023-03-12T03:33:38.310Z,98282.33
2023-03-12T03:36:07.819Z,98291.19
2023-03-12T03:38:38.704Z,98298.28
2023-03-12T03:41:11.747Z,98303.71
2023-03-12T03:43:43.001Z,98304.33
2023-03-12T03:46:12.445Z,98303.83
2023-03-12T03:48:43.483Z,98302.54
2023-03-12T03:51:12.026Z,98305.84
2023-03-12T03:53:43.595Z,98309.23
2023-03-12T03:56:14.592Z,98307.02
2023-03-12T03:58:52.427Z,98310.66
2023-03-12T04:39:00.119Z,98444.14
2023-03-12T04:41:37.188Z,98450.26
2023-03-12T04:44:12.949Z,98445.77
2023-03-12T04:46:42.420Z,98461.05
2023-03-12T04:49:12.789Z,98461.56
2023-03-12T04:51:41.677Z,98459.70
2023-03-12T04:54:10.261Z,98467.73
2023-03-12T04:56:39.138Z,98475.80
2023-03-12T04:59:10.689Z,98482.98
2023-03-12T05:01:39.797Z,98490.83
2023-03-12T05:04:13.384Z,98500.92
2023-03-12T05:06:41.766Z,98510.42
2023-03-12T05:09:11.175Z,98516.85
2023-03-12T05:11:40.982Z,98519.81
2023-03-12T05:14:12.233Z,98528.55
2023-03-12T05:16:41.222Z,98528.21
2023-03-12T05:19:12.365Z,98534.69
2023-03-12T05:21:42.494Z,98536.65
2023-03-12T05:24:10.711Z,98539.80
2023-03-12T05:26:41.700Z,98546.86
2023-03-12T05:29:12.845Z,98550.70
2023-03-12T05:31:47.006Z,98557.76
2023-03-12T05:34:16.007Z,98561.89
2023-03-12T05:36:45.560Z,98567.52
2023-03-12T05:39:16.190Z,98580.00
2023-03-12T05:41:44.781Z,98590.62
2023-03-12T05:44:17.866Z,98598.27
2023-03-12T05:46:49.928Z,98599.79
2023-03-12T05:49:18.820Z,98610.90
2023-03-12T05:51:48.543Z,98620.46
2023-03-12T05:54:17.221Z,98625.63
2023-03-12T05:56:46.032Z,98640.16
2023-03-12T05:59:14.684Z,98641.95
2023-03-12T06:01:43.266Z,98658.38
2023-03-12T06:04:11.875Z,98661.59
2023-03-12T06:06:41.056Z,98666.62
2023-03-12T06:09:10.040Z,98672.06
2023-03-12T06:11:39.402Z,98680.20
2023-03-12T06:14:07.928Z,98693.98
2023-03-12T06:16:37.674Z,98701.17
2023-03-12T06:19:06.990Z,98711.55
2023-03-12T06:21:42.480Z,98719.50
2023-03-12T06:24:11.784Z,98724.88
2023-03-12T06:26:49.973Z,98736.88
2023-03-12T06:29:18.583Z,98740.17
2023-03-12T06:31:48.529Z,98746.52
2023-03-12T06:34:23.215Z,98759.20
2023-03-12T15:18:37.987Z,99666.30
2023-03-12T15:21:07.081Z,99666.95
2023-03-12T15:23:44.072Z,99670.33
2023-03-12T15:26:24.829Z,99671.04
2023-03-12T15:29:26.144Z,99669.06
2023-03-12T15:31:55.237Z,99670.63
2023-03-12T15:34:31.646Z,99675.34
2023-03-12T15:37:00.536Z,99681.46
2023-03-12T15:39:33.462Z,99683.36
2023-03-12T15:42:10.261Z,99684.83
2023-03-12T15:44:48.025Z,99683.30
2023-03-12T15:47:19.822Z,99685.42
2023-03-12T15:49:56.050Z,99691.36
2023-03-12T15:52:31.455Z,99695.34
2023-03-12T15:55:13.974Z,99705.54
2023-03-12T15:57:51.449Z,99710.30
2023-03-12T16:00:21.594Z,99713.52
2023-03-12T16:02:51.603Z,99726.40
2023-03-12T16:05:41.897Z,99722.40
2023-03-12T16:08:15.914Z,99728.84
2023-03-12T16:10:43.977Z,99731.52
2023-03-12T16:13:13.514Z,99737.67
2023-03-12T16:15:43.313Z,99741.70
2023-03-12T16:18:18.432Z,99753.41
2023-03-12T16:20:45.486Z,99752.39
2023-03-12T16:23:17.139Z,99765.59
2023-03-12T16:25:45.924Z,99761.50
2023-03-12T16:28:14.111Z,99767.79
2023-03-12T16:30:41.216Z,99772.23
2023-03-12T16:33:09.374Z,99770.85
2023-03-12T16:35:37.692Z,99770.29
2023-03-12T16:38:06.590Z,99774.95
2023-03-12T16:40:38.450Z,99779.73
2023-03-12T16:43:07.063Z,99786.23
2023-03-12T16:45:35.194Z,99798.80
2023-03-12T16:48:04.914Z,99806.47
2023-03-12T16:50:32.698Z,99814.65
2023-03-12T16:52:59.858Z,99835.56
2023-03-12T16:55:28.437Z,99857.33
2023-03-12T16:58:00.369Z,99888.48
2023-03-12T17:00:29.890Z,99877.44
2023-03-12T17:02:59.696Z,99880.92
2023-03-12T17:05:27.603Z,99881.19
2023-03-12T17:07:55.352Z,99881.95
2023-03-12T17:10:25.651Z,99888.86
2023-03-12T17:12:52.499Z,99888.21
2023-03-12T17:15:21.212Z,99897.45
2023-03-12T22:57:42.227Z,100476.67
2023-03-12T23:00:12.804Z,100485.48
2023-03-12T23:02:41.046Z,100496.20
2023-03-12T23:05:09.829Z,100494.87
2023-03-12T23:07:38.214Z,100504.80
2023-03-12T23:10:08.321Z,100504.09
2023-03-12T23:12:36.802Z,100509.83
2023-03-12T23:15:06.721Z,100507.98
2023-03-12T23:17:36.311Z,100514.20
2023-03-12T23:20:06.142Z,100520.91
2023-03-12T23:22:34.836Z,100522.20
2023-03-12T23:25:05.918Z,100525.65
2023-03-12T23:27:34.352Z,100526.02
2023-03-12T23:30:02.478Z,100528.75
2023-03-12T23:32:31.962Z,100535.95
2023-03-12T23:35:00.613Z,100536.09
2023-03-12T23:37:31.759Z,100543.67
2023-03-12T23:40:00.170Z,100545.48
2023-03-12T23:42:29.380Z,100543.35
2023-03-12T23:44:57.512Z,100549.80
2023-03-12T23:47:26.608Z,100549.48
2023-03-12T23:49:55.609Z,100557.64
2023-03-12T23:52:26.865Z,100558.42
2023-03-12T23:54:55.384Z,100559.30
2023-03-12T23:57:23.809Z,100566.39
2023-03-12T23:59:54.704Z,100563.70
